sensor_id;sensor_type;location;lat;lon;timestamp;pressure;altitude;pressure_sealevel;temperature;humidity
6680;BME280;3376;42.664;23.346;2023-11-18T00:01:46;93814.16;;;6.90;100.00
6680;BME280;3376;42.664;23.346;2023-11-18T00:04:14;93795.56;;;6.80;100.00
6680;BME280;3376;42.664;23.346;2023-11-18T00:06:42;93815.53;;;6.78;100.00
6680;BME280;3376;42.664;23.346;2023-11-18T00:09:10;93814.53;;;6.79;100.00
6680;BME280;3376;42.664;23.346;2023-11-18T00:11:39;93784.72;;;6.62;100.00
6680;BME280;3376;42.664;23.346;2023-11-18T00:14:07;93805.91;;;6.72;100.00
6680;BME280;3376;42.664;23.346;2023-11-18T00:16:35;93824.41;;;6.67;100.00
6680;BME280;3376;42.664;23.346;2023-11-18T00:19:02;93822.84;;;6.58;100.00
6680;BME280;3376;42.664;23.346;2023-11-18T00:21:32;93819.50;;;6.50;100.00
6680;BME280;3376;42.664;23.346;2023-11-18T00:23:59;93841.75;;;6.43;100.00
6680;BME280;3376;42.664;23.346;2023-11-18T00:26:26;93837.81;;;6.55;100.00
6680;BME280;3376;42.664;23.346;2023-11-18T00:28:52;93830.28;;;6.53;100.00
6680;BME280;3376;42.664;23.346;2023-11-18T00:31:18;93806.94;;;6.55;100.00
6680;BME280;3376;42.664;23.346;2023-11-18T00:33:45;93806.94;;;6.55;100.00
6680;BME280;3376;42.664;23.346;2023-11-18T00:36:12;93814.19;;;6.59;100.00
6680;BME280;3376;42.664;23.346;2023-11-18T00:38:40;93818.69;;;6.57;100.00
6680;BME280;3376;42.664;23.346;2023-11-18T00:41:07;93814.66;;;6.63;100.00
6680;BME280;3376;42.664;23.346;2023-11-18T00:43:34;93799.78;;;6.42;100.00
6680;BME280;3376;42.664;23.346;2023-11-18T00:46:01;93814.22;;;6.51;100.00
6680;BME280;3376;42.664;23.346;2023-11-18T00:48:29;93805.44;;;6.38;100.00
6680;BME280;3376;42.664;23.346;2023-11-18T00:50:56;93824.06;;;6.48;100.00
6680;BME280;3376;42.664;23.346;2023-11-18T00:53:23;93820.25;;;6.36;100.00
6680;BME280;3376;42.664;23.346;2023-11-18T00:55:51;93799.38;;;6.23;100.00
6680;BME280;3376;42.664;23.346;2023-11-18T00:58:18;93824.44;;;6.29;100.00
6680;BME280;3376;42.664;23.346;2023-11-18T01:00:45;93804.41;;;6.16;100.00
6680;BME280;3376;42.664;23.346;2023-11-18T01:03:12;93821.97;;;6.05;100.00
6680;BME280;3376;42.664;23.346;2023-11-18T01:05:39;93811.34;;;6.08;100.00
6680;BME280;3376;42.664;23.346;2023-11-18T01:08:06;93821.47;;;6.09;100.00
6680;BME280;3376;42.664;23.346;2023-11-18T01:10:34;93834.63;;;6.14;100.00
6680;BME280;3376;42.664;23.346;2023-11-18T01:13:02;93828.81;;;6.12;100.00
6680;BME280;3376;42.664;23.346;2023-11-18T01:15:29;93834.78;;;6.13;100.00
6680;BME280;3376;42.664;23.346;2023-11-18T01:17:57;93850.72;;;6.08;100.00
6680;BME280;3376;42.664;23.346;2023-11-18T01:20:23;93848.78;;;6.02;100.00
6680;BME280;3376;42.664;23.346;2023-11-18T01:22:50;93857.63;;;6.08;100.00
6680;BME280;3376;42.664;23.346;2023-11-18T01:25:17;93834.38;;;5.93;100.00
6680;BME280;3376;42.664;23.346;2023-11-18T01:27:44;93824.38;;;6.06;100.00
6680;BME280;3376;42.664;23.346;2023-11-18T01:30:14;93837.06;;;6.08;100.00
6680;BME280;3376;42.664;23.346;2023-11-18T01:32:41;93831.22;;;6.14;100.00
6680;BME280;3376;42.664;23.346;2023-11-18T01:35:08;93845.72;;;6.15;100.00
6680;BME280;3376;42.664;23.346;2023-11-18T01:37:36;93839.94;;;6.13;100.00
6680;BME280;3376;42.664;23.346;2023-11-18T01:40:04;93863.56;;;6.08;100.00
6680;BME280;3376;42.664;23.346;2023-11-18T01:42:33;93836.09;;;6.01;100.00
6680;BME280;3376;42.664;23.346;2023-11-18T01:45:00;93842.69;;;5.95;100.00
6680;BME280;3376;42.664;23.346;2023-11-18T01:47:30;93833.56;;;5.92;100.00
6680;BME280;3376;42.664;23.346;2023-11-18T01:49:59;93848.31;;;5.98;100.00
6680;BME280;3376;42.664;23.346;2023-11-18T01:52:27;93860.22;;;6.00;100.00
6680;BME280;3376;42.664;23.346;2023-11-18T01:54:56;93845.09;;;5.96;100.00
6680;BME280;3376;42.664;23.346;2023-11-18T01:57:23;93844.66;;;5.93;100.00
6680;BME280;3376;42.664;23.346;2023-11-18T01:59:52;93841.06;;;6.02;100.00
6680;BME280;3376;42.664;23.346;2023-11-18T02:02:19;93596.00;;;4.47;100.00
6680;BME280;3376;42.664;23.346;2023-11-18T02:04:49;93802.09;;;5.82;100.00
6680;BME280;3376;42.664;23.346;2023-11-18T02:07:16;93839.81;;;5.98;100.00
6680;BME280;3376;42.664;23.346;2023-11-18T02:09:43;93831.28;;;5.81;100.00
6680;BME280;3376;42.664;23.346;2023-11-18T02:12:28;93840.00;;;5.64;100.00
6680;BME280;3376;42.664;23.346;2023-11-18T02:14:57;93842.72;;;5.63;100.00
6680;BME280;3376;42.664;23.346;2023-11-18T02:17:25;93791.53;;;5.37;100.00
6680;BME280;3376;42.664;23.346;2023-11-18T02:19:56;93836.47;;;5.57;100.00
6680;BME280;3376;42.664;23.346;2023-11-18T02:22:24;93808.41;;;5.32;100.00
6680;BME280;3376;42.664;23.346;2023-11-18T02:24:51;93858.47;;;5.44;100.00
6680;BME280;3376;42.664;23.346;2023-11-18T02:27:20;93857.97;;;5.40;100.00
6680;BME280;3376;42.664;23.346;2023-11-18T02:29:48;93848.03;;;5.45;100.00
6680;BME280;3376;42.664;23.346;2023-11-18T02:32:20;93853.81;;;5.39;100.00
6680;BME280;3376;42.664;23.346;2023-11-18T02:34:56;93836.31;;;5.27;100.00
6680;BME280;3376;42.664;23.346;2023-11-18T02:37:25;93852.53;;;5.27;100.00
6680;BME280;3376;42.664;23.346;2023-11-18T02:40:01;93854.63;;;5.32;100.00
6680;BME280;3376;42.664;23.346;2023-11-18T02:42:35;93841.47;;;5.27;100.00
6680;BME280;3376;42.664;23.346;2023-11-18T02:45:05;93849.16;;;5.27;100.00
6680;BME280;3376;42.664;23.346;2023-11-18T02:47:33;93833.75;;;5.19;100.00
6680;BME280;3376;42.664;23.346;2023-11-18T02:50:00;93849.31;;;5.25;100.00
6680;BME280;3376;42.664;23.346;2023-11-18T02:52:36;93844.34;;;5.16;100.00
6680;BME280;3376;42.664;23.346;2023-11-18T02:55:04;93874.66;;;5.28;100.00
6680;BME280;3376;42.664;23.346;2023-11-18T02:57:32;93868.72;;;5.20;100.00
6680;BME280;3376;42.664;23.346;2023-11-18T03:00:00;93879.31;;;5.25;100.00
6680;BME280;3376;42.664;23.346;2023-11-18T03:02:28;93868.06;;;5.18;100.00
6680;BME280;3376;42.664;23.346;2023-11-18T03:04:56;93875.16;;;5.16;100.00
6680;BME280;3376;42.664;23.346;2023-11-18T03:07:23;93880.69;;;4.87;100.00
6680;BME280;3376;42.664;23.346;2023-11-18T03:09:50;93898.06;;;5.01;100.00
6680;BME280;3376;42.664;23.346;2023-11-18T03:12:16;93895.81;;;5.06;100.00
6680;BME280;3376;42.664;23.346;2023-11-18T03:14:43;93899.69;;;5.02;100.00
6680;BME280;3376;42.664;23.346;2023-11-18T03:17:11;93899.97;;;4.99;100.00
6680;BME280;3376;42.664;23.346;2023-11-18T03:19:38;93905.59;;;5.03;100.00
6680;BME280;3376;42.664;23.346;2023-11-18T03:22:07;93911.22;;;5.06;100.00
6680;BME280;3376;42.664;23.346;2023-11-18T03:24:33;93900.56;;;4.85;100.00
6680;BME280;3376;42.664;23.346;2023-11-18T03:27:00;93928.19;;;4.91;100.00
6680;BME280;3376;42.664;23.346;2023-11-18T03:29:27;93907.31;;;4.78;100.00
6680;BME280;3376;42.664;23.346;2023-11-18T03:31:54;93911.47;;;4.71;100.00
6680;BME280;3376;42.664;23.346;2023-11-18T03:34:22;93902.78;;;4.72;100.00
6680;BME280;3376;42.664;23.346;2023-11-18T03:36:49;93901.13;;;4.55;100.00
6680;BME280;3376;42.664;23.346;2023-11-18T03:39:16;93906.44;;;4.61;100.00
6680;BME280;3376;42.664;23.346;2023-11-18T03:41:43;93913.63;;;4.50;100.00
6680;BME280;3376;42.664;23.346;2023-11-18T03:44:11;93922.91;;;4.51;100.00
6680;BME280;3376;42.664;23.346;2023-11-18T03:46:38;93930.72;;;4.41;100.00
6680;BME280;3376;42.664;23.346;2023-11-18T03:49:06;93896.38;;;4.26;100.00
6680;BME280;3376;42.664;23.346;2023-11-18T03:51:34;93922.72;;;4.44;100.00
6680;BME280;3376;42.664;23.346;2023-11-18T03:54:01;93919.56;;;4.50;100.00
6680;BME280;3376;42.664;23.346;2023-11-18T03:56:28;93928.19;;;4.49;100.00
6680;BME280;3376;42.664;23.346;2023-11-18T03:58:55;93929.31;;;4.47;100.00
6680;BME280;3376;42.664;23.346;2023-11-18T04:01:22;93932.81;;;4.46;100.00
6680;BME280;3376;42.664;23.346;2023-11-18T04:03:52;93931.53;;;4.42;100.00
6680;BME280;3376;42.664;23.346;2023-11-18T04:06:20;93942.38;;;4.36;100.00
6680;BME280;3376;42.664;23.346;2023-11-18T04:08:48;93923.28;;;4.30;100.00
6680;BME280;3376;42.664;23.346;2023-11-18T04:11:15;93917.66;;;4.27;100.00
6680;BME280;3376;42.664;23.346;2023-11-18T04:13:43;93936.56;;;4.26;100.00
6680;BME280;3376;42.664;23.346;2023-11-18T04:16:11;93937.47;;;4.17;100.00
6680;BME280;3376;42.664;23.346;2023-11-18T04:18:39;93931.75;;;4.23;100.00
6680;BME280;3376;42.664;23.346;2023-11-18T04:21:06;93946.97;;;4.24;100.00
6680;BME280;3376;42.664;23.346;2023-11-18T04:23:34;93946.44;;;4.13;100.00
6680;BME280;3376;42.664;23.346;2023-11-18T04:26:03;93934.28;;;4.15;100.00
6680;BME280;3376;42.664;23.346;2023-11-18T04:28:30;93923.97;;;4.07;100.00
6680;BME280;3376;42.664;23.346;2023-11-18T04:30:57;93902.56;;;3.90;100.00
6680;BME280;3376;42.664;23.346;2023-11-18T04:33:25;93948.41;;;4.01;100.00
6680;BME280;3376;42.664;23.346;2023-11-18T04:35:51;93940.31;;;4.06;100.00
6680;BME280;3376;42.664;23.346;2023-11-18T04:38:19;93964.28;;;4.05;100.00
6680;BME280;3376;42.664;23.346;2023-11-18T04:40:45;93941.91;;;4.07;100.00
6680;BME280;3376;42.664;23.346;2023-11-18T04:43:14;93916.06;;;3.75;100.00
6680;BME280;3376;42.664;23.346;2023-11-18T04:45:42;93952.69;;;3.93;100.00
6680;BME280;3376;42.664;23.346;2023-11-18T04:48:09;93950.56;;;4.06;100.00
6680;BME280;3376;42.664;23.346;2023-11-18T04:50:36;93929.97;;;3.98;100.00
6680;BME280;3376;42.664;23.346;2023-11-18T04:53:03;93972.66;;;4.07;100.00
6680;BME280;3376;42.664;23.346;2023-11-18T04:55:30;93970.09;;;4.07;100.00
6680;BME280;3376;42.664;23.346;2023-11-18T04:57:56;93962.69;;;4.04;100.00
6680;BME280;3376;42.664;23.346;2023-11-18T05:00:25;93932.84;;;3.95;100.00
6680;BME280;3376;42.664;23.346;2023-11-18T05:02:53;93929.94;;;3.90;100.00
6680;BME280;3376;42.664;23.346;2023-11-18T05:05:20;93956.06;;;3.93;100.00
6680;BME280;3376;42.664;23.346;2023-11-18T05:07:47;93957.53;;;3.96;100.00
6680;BME280;3376;42.664;23.346;2023-11-18T05:10:14;93943.28;;;4.01;100.00
6680;BME280;3376;42.664;23.346;2023-11-18T05:12:41;93942.00;;;3.97;100.00
6680;BME280;3376;42.664;23.346;2023-11-18T05:15:09;93939.59;;;3.96;100.00
6680;BME280;3376;42.664;23.346;2023-11-18T05:17:37;93933.84;;;4.02;100.00
6680;BME280;3376;42.664;23.346;2023-11-18T05:20:06;93941.84;;;3.99;100.00
6680;BME280;3376;42.664;23.346;2023-11-18T05:22:34;93934.38;;;4.05;100.00
6680;BME280;3376;42.664;23.346;2023-11-18T05:25:02;93925.81;;;3.97;100.00
6680;BME280;3376;42.664;23.346;2023-11-18T05:27:29;93948.19;;;4.12;100.00
6680;BME280;3376;42.664;23.346;2023-11-18T05:29:56;93933.28;;;4.08;100.00
6680;BME280;3376;42.664;23.346;2023-11-18T05:32:26;93930.63;;;4.00;100.00
6680;BME280;3376;42.664;23.346;2023-11-18T05:34:55;93945.72;;;4.03;100.00
6680;BME280;3376;42.664;23.346;2023-11-18T05:37:23;93905.31;;;3.97;100.00
6680;BME280;3376;42.664;23.346;2023-11-18T05:39:50;93904.94;;;3.84;100.00
6680;BME280;3376;42.664;23.346;2023-11-18T05:42:24;93936.63;;;4.08;100.00
6680;BME280;3376;42.664;23.346;2023-11-18T05:44:51;93929.38;;;4.04;100.00
6680;BME280;3376;42.664;23.346;2023-11-18T05:47:24;93948.72;;;3.98;100.00
6680;BME280;3376;42.664;23.346;2023-11-18T05:49:51;93946.31;;;3.97;100.00
6680;BME280;3376;42.664;23.346;2023-11-18T05:52:20;93953.03;;;3.98;100.00
6680;BME280;3376;42.664;23.346;2023-11-18T05:54:48;93918.88;;;3.89;100.00
6680;BME280;3376;42.664;23.346;2023-11-18T05:57:15;93927.13;;;3.75;100.00
6680;BME280;3376;42.664;23.346;2023-11-18T05:59:42;93941.06;;;3.81;100.00
6680;BME280;3376;42.664;23.346;2023-11-18T06:02:09;93938.59;;;3.89;100.00
6680;BME280;3376;42.664;23.346;2023-11-18T06:04:38;93925.63;;;3.90;100.00
6680;BME280;3376;42.664;23.346;2023-11-18T06:07:05;93932.84;;;3.95;100.00
6680;BME280;3376;42.664;23.346;2023-11-18T06:09:33;93945.00;;;3.93;100.00
6680;BME280;3376;42.664;23.346;2023-11-18T06:12:00;93950.47;;;3.98;100.00
6680;BME280;3376;42.664;23.346;2023-11-18T06:14:27;93949.41;;;3.83;100.00
6680;BME280;3376;42.664;23.346;2023-11-18T06:16:54;93959.66;;;3.83;100.00
6680;BME280;3376;42.664;23.346;2023-11-18T06:19:21;93940.50;;;3.87;100.00
6680;BME280;3376;42.664;23.346;2023-11-18T06:21:48;93946.44;;;3.87;100.00
6680;BME280;3376;42.664;23.346;2023-11-18T06:24:15;93941.88;;;3.81;100.00
6680;BME280;3376;42.664;23.346;2023-11-18T06:26:45;93955.25;;;3.93;100.00
6680;BME280;3376;42.664;23.346;2023-11-18T06:29:13;93957.38;;;3.97;100.00
6680;BME280;3376;42.664;23.346;2023-11-18T06:31:41;93958.16;;;3.98;100.00
6680;BME280;3376;42.664;23.346;2023-11-18T06:34:08;93936.88;;;3.97;100.00
6680;BME280;3376;42.664;23.346;2023-11-18T06:36:35;93937.47;;;3.91;100.00
6680;BME280;3376;42.664;23.346;2023-11-18T06:39:01;93836.97;;;3.20;100.00
6680;BME280;3376;42.664;23.346;2023-11-18T06:41:30;93910.09;;;3.92;100.00
6680;BME280;3376;42.664;23.346;2023-11-18T06:44:01;93949.34;;;3.92;100.00
6680;BME280;3376;42.664;23.346;2023-11-18T06:46:35;93961.53;;;3.98;100.00
6680;BME280;3376;42.664;23.346;2023-11-18T06:49:06;93958.09;;;4.07;100.00
6680;BME280;3376;42.664;23.346;2023-11-18T06:51:34;93964.81;;;4.08;100.00
6680;BME280;3376;42.664;23.346;2023-11-18T06:54:03;93964.41;;;4.21;100.00
6680;BME280;3376;42.664;23.346;2023-11-18T06:56:35;93958.06;;;4.33;100.00
6680;BME280;3376;42.664;23.346;2023-11-18T06:59:04;93953.13;;;4.39;100.00
6680;BME280;3376;42.664;23.346;2023-11-18T07:01:32;93952.78;;;4.34;100.00
6680;BME280;3376;42.664;23.346;2023-11-18T07:03:59;93958.63;;;4.44;100.00
6680;BME280;3376;42.664;23.346;2023-11-18T07:06:26;93954.69;;;4.32;100.00
6680;BME280;3376;42.664;23.346;2023-11-18T07:08:53;93979.09;;;4.36;100.00
6680;BME280;3376;42.664;23.346;2023-11-18T07:11:21;93958.06;;;4.33;100.00
6680;BME280;3376;42.664;23.346;2023-11-18T07:13:48;93976.06;;;4.41;100.00
6680;BME280;3376;42.664;23.346;2023-11-18T07:16:23;93998.69;;;4.45;100.00
6680;BME280;3376;42.664;23.346;2023-11-18T07:18:50;93935.25;;;4.22;100.00
6680;BME280;3376;42.664;23.346;2023-11-18T07:21:18;93976.22;;;4.39;100.00
6680;BME280;3376;42.664;23.346;2023-11-18T07:23:45;93969.34;;;4.40;100.00
6680;BME280;3376;42.664;23.346;2023-11-18T07:26:12;93992.22;;;4.33;100.00
6680;BME280;3376;42.664;23.346;2023-11-18T07:28:39;93990.75;;;4.31;100.00
6680;BME280;3376;42.664;23.346;2023-11-18T07:31:07;93953.84;;;4.24;100.00
6680;BME280;3376;42.664;23.346;2023-11-18T07:33:36;93986.59;;;4.30;100.00
6680;BME280;3376;42.664;23.346;2023-11-18T07:36:03;93964.56;;;4.19;100.00
6680;BME280;3376;42.664;23.346;2023-11-18T07:38:31;93980.25;;;4.16;100.00
6680;BME280;3376;42.664;23.346;2023-11-18T07:41:00;93988.56;;;4.18;100.00
6680;BME280;3376;42.664;23.346;2023-11-18T07:43:28;93976.69;;;4.09;100.00
6680;BME280;3376;42.664;23.346;2023-11-18T07:45:55;93979.59;;;4.14;100.00
6680;BME280;3376;42.664;23.346;2023-11-18T07:48:22;93960.88;;;4.22;100.00
6680;BME280;3376;42.664;23.346;2023-11-18T07:50:50;93963.06;;;4.09;100.00
6680;BME280;3376;42.664;23.346;2023-11-18T07:53:17;93949.38;;;4.26;100.00
6680;BME280;3376;42.664;23.346;2023-11-18T07:55:44;93996.84;;;4.30;100.00
6680;BME280;3376;42.664;23.346;2023-11-18T07:58:13;93986.09;;;4.26;100.00
6680;BME280;3376;42.664;23.346;2023-11-18T08:00:41;93981.50;;;4.12;100.00
6680;BME280;3376;42.664;23.346;2023-11-18T08:03:08;93997.69;;;4.13;100.00
6680;BME280;3376;42.664;23.346;2023-11-18T08:05:37;94004.72;;;4.11;100.00
6680;BME280;3376;42.664;23.346;2023-11-18T08:08:06;93886.44;;;3.29;100.00
6680;BME280;3376;42.664;23.346;2023-11-18T08:10:34;93990.53;;;3.99;100.00
6680;BME280;3376;42.664;23.346;2023-11-18T08:13:03;94007.22;;;4.03;100.00
6680;BME280;3376;42.664;23.346;2023-11-18T08:15:30;94009.34;;;4.07;100.00
6680;BME280;3376;42.664;23.346;2023-11-18T08:17:57;94009.78;;;4.03;100.00
6680;BME280;3376;42.664;23.346;2023-11-18T08:20:24;94021.09;;;4.18;100.00
6680;BME280;3376;42.664;23.346;2023-11-18T08:22:52;93999.06;;;4.25;100.00
6680;BME280;3376;42.664;23.346;2023-11-18T08:25:22;94004.91;;;4.17;100.00
6680;BME280;3376;42.664;23.346;2023-11-18T08:27:49;93966.31;;;4.19;100.00
6680;BME280;3376;42.664;23.346;2023-11-18T08:30:16;93999.78;;;4.17;100.00
6680;BME280;3376;42.664;23.346;2023-11-18T08:32:44;94002.56;;;4.24;100.00
6680;BME280;3376;42.664;23.346;2023-11-18T08:35:12;93999.47;;;4.20;100.00
6680;BME280;3376;42.664;23.346;2023-11-18T08:37:40;93986.78;;;4.11;100.00
6680;BME280;3376;42.664;23.346;2023-11-18T08:40:08;93958.94;;;4.16;100.00
6680;BME280;3376;42.664;23.346;2023-11-18T08:42:42;93995.91;;;4.13;100.00
6680;BME280;3376;42.664;23.346;2023-11-18T08:45:14;93989.03;;;4.14;100.00
6680;BME280;3376;42.664;23.346;2023-11-18T08:47:43;94001.50;;;4.09;100.00
6680;BME280;3376;42.664;23.346;2023-11-18T08:50:10;94027.28;;;4.07;100.00
6680;BME280;3376;42.664;23.346;2023-11-18T08:52:38;94004.72;;;4.11;100.00
6680;BME280;3376;42.664;23.346;2023-11-18T08:55:10;94027.28;;;4.07;100.00
6680;BME280;3376;42.664;23.346;2023-11-18T08:57:45;94025.59;;;3.98;100.00
6680;BME280;3376;42.664;23.346;2023-11-18T09:00:24;94017.63;;;3.84;100.00
6680;BME280;3376;42.664;23.346;2023-11-18T09:03:14;93986.97;;;3.74;100.00
6680;BME280;3376;42.664;23.346;2023-11-18T09:05:51;94004.69;;;3.85;100.00
6680;BME280;3376;42.664;23.346;2023-11-18T09:08:26;94029.84;;;3.90;100.00
6680;BME280;3376;42.664;23.346;2023-11-18T09:10:55;94027.06;;;4.01;100.00
6680;BME280;3376;42.664;23.346;2023-11-18T09:13:24;94014.53;;;3.98;100.00
6680;BME280;3376;42.664;23.346;2023-11-18T09:15:54;94013.28;;;4.02;100.00
6680;BME280;3376;42.664;23.346;2023-11-18T09:18:22;94023.69;;;4.00;100.00
6680;BME280;3376;42.664;23.346;2023-11-18T09:20:50;94012.47;;;4.01;100.00
6680;BME280;3376;42.664;23.346;2023-11-18T09:23:18;93993.25;;;3.97;100.00
6680;BME280;3376;42.664;23.346;2023-11-18T09:25:46;94018.03;;;4.14;100.00
6680;BME280;3376;42.664;23.346;2023-11-18T09:28:14;94014.72;;;4.22;100.00
6680;BME280;3376;42.664;23.346;2023-11-18T09:30:43;94005.81;;;4.34;100.00
6680;BME280;3376;42.664;23.346;2023-11-18T09:33:17;93952.75;;;4.26;100.00
6680;BME280;3376;42.664;23.346;2023-11-18T09:35:51;94006.63;;;4.34;100.00
6680;BME280;3376;42.664;23.346;2023-11-18T09:38:22;94016.69;;;4.28;100.00
6680;BME280;3376;42.664;23.346;2023-11-18T09:40:51;94007.88;;;4.30;100.00
6680;BME280;3376;42.664;23.346;2023-11-18T09:43:19;93998.78;;;4.36;100.00
6680;BME280;3376;42.664;23.346;2023-11-18T09:45:50;94009.38;;;4.41;100.00
6680;BME280;3376;42.664;23.346;2023-11-18T09:48:21;93989.84;;;4.40;100.00
6680;BME280;3376;42.664;23.346;2023-11-18T09:50:51;94001.25;;;4.45;100.00
6680;BME280;3376;42.664;23.346;2023-11-18T09:53:19;94000.19;;;4.56;100.00
6680;BME280;3376;42.664;23.346;2023-11-18T09:55:52;93970.03;;;4.50;100.00
6680;BME280;3376;42.664;23.346;2023-11-18T09:58:31;93989.38;;;4.44;100.00
6680;BME280;3376;42.664;23.346;2023-11-18T10:01:08;93986.63;;;4.38;100.00
6680;BME280;3376;42.664;23.346;2023-11-18T10:03:40;93997.78;;;4.29;100.00
6680;BME280;3376;42.664;23.346;2023-11-18T10:06:09;93990.03;;;4.21;100.00
6680;BME280;3376;42.664;23.346;2023-11-18T10:08:37;93998.81;;;4.18;100.00
6680;BME280;3376;42.664;23.346;2023-11-18T10:11:05;93984.31;;;4.27;100.00
6680;BME280;3376;42.664;23.346;2023-11-18T10:13:34;94004.81;;;4.27;100.00
6680;BME280;3376;42.664;23.346;2023-11-18T10:16:08;94005.88;;;4.16;100.00
6680;BME280;3376;42.664;23.346;2023-11-18T10:18:35;93995.88;;;4.05;100.00
6680;BME280;3376;42.664;23.346;2023-11-18T10:21:03;94022.31;;;4.06;100.00
6680;BME280;3376;42.664;23.346;2023-11-18T10:23:33;94005.81;;;4.08;100.00
6680;BME280;3376;42.664;23.346;2023-11-18T10:26:03;94011.00;;;4.16;100.00
6680;BME280;3376;42.664;23.346;2023-11-18T10:28:33;94014.50;;;4.15;100.00
6680;BME280;3376;42.664;23.346;2023-11-18T10:31:03;94014.50;;;4.15;100.00
6680;BME280;3376;42.664;23.346;2023-11-18T10:33:31;94008.28;;;4.18;100.00
6680;BME280;3376;42.664;23.346;2023-11-18T10:35:59;94012.81;;;4.24;100.00
6680;BME280;3376;42.664;23.346;2023-11-18T10:38:30;93984.69;;;4.32;100.00
6680;BME280;3376;42.664;23.346;2023-11-18T10:40:58;93991.63;;;4.22;100.00
6680;BME280;3376;42.664;23.346;2023-11-18T10:43:27;94008.72;;;4.39;100.00
6680;BME280;3376;42.664;23.346;2023-11-18T10:46:04;94000.09;;;4.40;100.00
6680;BME280;3376;42.664;23.346;2023-11-18T10:48:39;93994.66;;;4.43;100.00
6680;BME280;3376;42.664;23.346;2023-11-18T10:51:09;93979.03;;;4.54;100.00
6680;BME280;3376;42.664;23.346;2023-11-18T10:53:40;93938.44;;;4.49;100.00
6680;BME280;3376;42.664;23.346;2023-11-18T10:56:17;94002.81;;;4.64;100.00
6680;BME280;3376;42.664;23.346;2023-11-18T10:58:49;93860.22;;;4.04;100.00
6680;BME280;3376;42.664;23.346;2023-11-18T11:01:27;93989.75;;;4.83;100.00
6680;BME280;3376;42.664;23.346;2023-11-18T11:03:55;93998.38;;;4.82;100.00
6680;BME280;3376;42.664;23.346;2023-11-18T11:06:23;93974.13;;;4.68;100.00
6680;BME280;3376;42.664;23.346;2023-11-18T11:08:50;93964.34;;;4.72;100.00
6680;BME280;3376;42.664;23.346;2023-11-18T11:11:20;93794.22;;;3.72;99.29
6680;BME280;3376;42.664;23.346;2023-11-18T11:13:50;93969.38;;;4.82;99.41
6680;BME280;3376;42.664;23.346;2023-11-18T11:16:23;93988.09;;;4.74;100.00
6680;BME280;3376;42.664;23.346;2023-11-18T11:18:55;93973.03;;;4.71;99.09
6680;BME280;3376;42.664;23.346;2023-11-18T11:21:26;93994.31;;;4.71;98.78
6680;BME280;3376;42.664;23.346;2023-11-18T11:23:58;93976.72;;;4.76;100.00
6680;BME280;3376;42.664;23.346;2023-11-18T11:26:34;93954.72;;;4.66;100.00
6680;BME280;3376;42.664;23.346;2023-11-18T11:29:14;93959.25;;;4.80;99.59
6680;BME280;3376;42.664;23.346;2023-11-18T11:31:49;93976.84;;;5.09;99.21
6680;BME280;3376;42.664;23.346;2023-11-18T11:34:23;93953.22;;;4.97;99.03
6680;BME280;3376;42.664;23.346;2023-11-18T11:36:54;93970.16;;;4.82;98.58
6680;BME280;3376;42.664;23.346;2023-11-18T11:39:23;93974.53;;;4.82;100.00
6680;BME280;3376;42.664;23.346;2023-11-18T11:41:55;93944.00;;;4.70;99.50
6680;BME280;3376;42.664;23.346;2023-11-18T11:44:21;93900.44;;;4.45;100.00
6680;BME280;3376;42.664;23.346;2023-11-18T11:46:54;93940.72;;;4.27;100.00
6680;BME280;3376;42.664;23.346;2023-11-18T11:49:28;93785.88;;;3.36;100.00
6680;BME280;3376;42.664;23.346;2023-11-18T11:52:03;93973.66;;;4.39;100.00
6680;BME280;3376;42.664;23.346;2023-11-18T11:54:37;93971.97;;;4.56;100.00
6680;BME280;3376;42.664;23.346;2023-11-18T11:57:06;93958.41;;;4.71;100.00
6680;BME280;3376;42.664;23.346;2023-11-18T11:59:54;93959.34;;;5.04;100.00
6680;BME280;3376;42.664;23.346;2023-11-18T12:02:22;93957.06;;;4.93;99.65
6680;BME280;3376;42.664;23.346;2023-11-18T12:04:53;93986.06;;;5.27;99.10
6680;BME280;3376;42.664;23.346;2023-11-18T12:07:24;93980.59;;;5.30;97.89
6680;BME280;3376;42.664;23.346;2023-11-18T12:09:55;93986.06;;;5.27;97.72
6680;BME280;3376;42.664;23.346;2023-11-18T12:12:24;93968.16;;;5.02;99.51
6680;BME280;3376;42.664;23.346;2023-11-18T12:14:53;93961.22;;;4.86;99.75
6680;BME280;3376;42.664;23.346;2023-11-18T12:17:22;93985.31;;;5.01;100.00
6680;BME280;3376;42.664;23.346;2023-11-18T12:19:50;93974.69;;;4.88;100.00
6680;BME280;3376;42.664;23.346;2023-11-18T12:22:25;93974.03;;;4.78;100.00
6680;BME280;3376;42.664;23.346;2023-11-18T12:25:28;93971.16;;;4.89;100.00
6680;BME280;3376;42.664;23.346;2023-11-18T12:27:56;94000.03;;;4.91;100.00
6680;BME280;3376;42.664;23.346;2023-11-18T12:30:42;94001.63;;;4.92;100.00
6680;BME280;3376;42.664;23.346;2023-11-18T12:33:22;93994.81;;;4.75;100.00
6680;BME280;3376;42.664;23.346;2023-11-18T12:42:02;93953.91;;;5.07;100.00
6680;BME280;3376;42.664;23.346;2023-11-18T12:44:38;93984.41;;;5.10;100.00
6680;BME280;3376;42.664;23.346;2023-11-18T12:47:11;93991.09;;;5.03;100.00
6680;BME280;3376;42.664;23.346;2023-11-18T12:49:44;93973.75;;;4.97;100.00
6680;BME280;3376;42.664;23.346;2023-11-18T12:52:15;93925.69;;;4.65;100.00
6680;BME280;3376;42.664;23.346;2023-11-18T12:54:46;93998.72;;;4.87;100.00
6680;BME280;3376;42.664;23.346;2023-11-18T12:57:16;93917.06;;;4.33;100.00
6680;BME280;3376;42.664;23.346;2023-11-18T12:59:43;93973.22;;;4.77;100.00
6680;BME280;3376;42.664;23.346;2023-11-18T13:02:11;93930.34;;;4.62;100.00
6680;BME280;3376;42.664;23.346;2023-11-18T13:04:45;93970.88;;;4.58;100.00
6680;BME280;3376;42.664;23.346;2023-11-18T13:07:13;93976.97;;;4.57;100.00
6680;BME280;3376;42.664;23.346;2023-11-18T13:09:40;93971.69;;;4.59;100.00
6680;BME280;3376;42.664;23.346;2023-11-18T13:12:11;93991.69;;;4.55;100.00
6680;BME280;3376;42.664;23.346;2023-11-18T13:14:41;93989.78;;;4.57;100.00
6680;BME280;3376;42.664;23.346;2023-11-18T13:17:10;93989.00;;;4.65;100.00
6680;BME280;3376;42.664;23.346;2023-11-18T13:19:38;93975.75;;;4.69;100.00
6680;BME280;3376;42.664;23.346;2023-11-18T13:22:06;93959.91;;;4.40;100.00
6680;BME280;3376;42.664;23.346;2023-11-18T13:24:34;93987.72;;;4.61;100.00
6680;BME280;3376;42.664;23.346;2023-11-18T13:27:02;93958.81;;;4.51;100.00
6680;BME280;3376;42.664;23.346;2023-11-18T13:29:31;93984.31;;;4.52;100.00